Decoded Metar for CYBQ ( in ) (IATA:) | Meteo·Mobile Aviation Weather
aviador You're here:

CYBQ Decoded Metar

in
Report Time2019-05-19 22:00:00
UTC Time2019-05-19 22:32:39
Flight Rules vfr VFR
Wind140° at 05 kt
W.Decomp.*RWY 07: 1.7 kt HW 4.7 kt RCW
Visibility9999 m
Phenomena:N/A
Clouds:N/A
Expected CloudBase > 6,400 ft AGL from Temp-Dew spread
CeilingNone
Temp10°C
Dew Point-6°C (32% RH)
AAT5.5°C
QNH1026 hPa
Raw Report
METAR CYBQ 192200Z AUTO 14005KT 080V150 9SM CLR 10/M06 A3030 RMK SLP279=

Extra information for CYBQ:More info

Social comments